Time;durP1;ratioP1;P1;durP2;ratioP2;P2;SDS_P1;SDS_P2;PMS_P1;PMS_P2;Temp;Humidity;BMP_temperature;BMP_pressure;BME280_temperature;BME280_humidity;BME280_pressure;Samples;Min_cycle;Max_cycle;Signal;HPM_P1;HPM_P2
2022/03/21 00:01:20;;;;;;;77.17;52.67;;;3.70;99.90;;;;;;5004401;28;20489;-78
2022/03/21 00:03:47;;;;;;;75.80;53.80;;;3.70;99.90;;;;;;5000787;28;20563;-79
2022/03/21 00:06:14;;;;;;;78.70;53.87;;;3.60;99.90;;;;;;4984981;28;20218;-78
2022/03/21 00:08:43;;;;;;;71.57;52.57;;;3.60;99.90;;;;;;4984827;28;20211;-80
2022/03/21 00:11:12;;;;;;;75.50;52.30;;;3.60;99.90;;;;;;4984603;28;20593;-79
2022/03/21 00:13:39;;;;;;;71.20;51.13;;;3.60;99.90;;;;;;4985667;28;20695;-79
2022/03/21 00:16:07;;;;;;;73.27;51.93;;;3.60;99.90;;;;;;4988337;28;20233;-79
2022/03/21 00:18:34;;;;;;;73.57;52.03;;;3.60;99.90;;;;;;4988421;28;20283;-79
2022/03/21 00:21:01;;;;;;;67.47;51.23;;;3.60;99.90;;;;;;4988429;28;20211;-79
2022/03/21 00:23:30;;;;;;;70.90;50.97;;;3.60;99.90;;;;;;4989101;28;20676;-78
2022/03/21 00:25:56;;;;;;;74.80;49.83;;;3.60;99.90;;;;;;4989642;28;20249;-77
2022/03/21 00:28:25;;;;;;;69.73;51.30;;;3.60;99.90;;;;;;4988546;28;20211;-78
2022/03/21 00:30:52;;;;;;;74.70;50.17;;;3.60;99.90;;;;;;4988710;28;20587;-79
2022/03/21 00:33:19;;;;;;;70.53;49.30;;;3.60;99.90;;;;;;4989316;28;20266;-81
2022/03/21 00:35:48;;;;;;;69.60;48.43;;;3.60;99.90;;;;;;4989119;28;20208;-80
2022/03/21 00:38:16;;;;;;;71.33;50.87;;;3.60;99.90;;;;;;4987396;28;20259;-80
2022/03/21 00:40:45;;;;;;;71.20;49.80;;;3.60;99.90;;;;;;4988148;28;20251;-80
2022/03/21 00:43:13;;;;;;;76.30;50.67;;;3.50;99.90;;;;;;4988391;28;20211;-79
2022/03/21 00:45:41;;;;;;;65.60;49.23;;;3.50;99.90;;;;;;4988890;28;20200;-79
2022/03/21 00:48:08;;;;;;;71.60;50.30;;;3.50;99.90;;;;;;5012830;28;20202;-79
2022/03/21 00:50:35;;;;;;;70.90;50.03;;;3.50;99.90;;;;;;4998233;28;20215;-78
2022/03/21 00:53:02;;;;;;;73.37;51.37;;;3.50;99.90;;;;;;4988641;28;20298;-79
2022/03/21 00:55:29;;;;;;;68.23;47.90;;;3.50;99.90;;;;;;4988322;28;20204;-79
2022/03/21 00:57:57;;;;;;;70.73;48.70;;;3.50;99.90;;;;;;4987843;28;20243;-78
2022/03/21 01:00:26;;;;;;;64.13;46.80;;;3.40;99.90;;;;;;4988005;28;20199;-78
2022/03/21 01:02:56;;;;;;;70.50;48.70;;;3.50;99.90;;;;;;4988389;28;20212;-77
2022/03/21 01:05:23;;;;;;;65.80;45.67;;;3.50;99.90;;;;;;4989909;28;20219;-80
2022/03/21 01:07:51;;;;;;;64.57;46.63;;;3.40;99.90;;;;;;4996951;28;20302;-80
2022/03/21 01:10:19;;;;;;;60.73;44.70;;;3.40;99.90;;;;;;4987118;28;20212;-80
2022/03/21 01:12:46;;;;;;;60.07;44.03;;;3.30;99.90;;;;;;4992996;28;20239;-80
2022/03/21 01:15:15;;;;;;;61.77;45.20;;;3.30;99.90;;;;;;4989307;28;20220;-78
2022/03/21 01:17:43;;;;;;;59.67;44.13;;;3.20;99.90;;;;;;5007333;28;20246;-79
2022/03/21 01:20:12;;;;;;;58.93;44.03;;;3.20;99.90;;;;;;4989013;28;20204;-78
2022/03/21 01:22:39;;;;;;;61.27;45.07;;;3.10;99.90;;;;;;4987939;28;20577;-79
2022/03/21 01:25:07;;;;;;;58.00;44.57;;;3.10;99.90;;;;;;4985887;28;20211;-80
2022/03/21 01:27:35;;;;;;;61.43;43.53;;;3.00;99.90;;;;;;4986919;28;20825;-79
2022/03/21 01:30:02;;;;;;;60.57;41.97;;;3.00;99.90;;;;;;4987836;28;20243;-79
2022/03/21 01:32:28;;;;;;;58.73;43.63;;;3.00;99.90;;;;;;4987485;28;20223;-78
2022/03/21 01:34:55;;;;;;;61.83;44.77;;;2.90;99.90;;;;;;4987577;28;20228;-78
2022/03/21 01:37:23;;;;;;;59.00;43.50;;;2.90;99.90;;;;;;5013334;23;20296;-79
2022/03/21 01:39:50;;;;;;;60.40;42.50;;;2.80;99.90;;;;;;5026125;28;20203;-79
2022/03/21 01:42:17;;;;;;;60.53;42.20;;;2.80;99.90;;;;;;5026481;28;20199;-77
2022/03/21 01:44:45;;;;;;;60.00;43.40;;;2.80;99.90;;;;;;5019808;28;20563;-79
2022/03/21 01:47:11;;;;;;;62.33;45.03;;;2.70;99.90;;;;;;5006874;28;20583;-78
2022/03/21 01:49:38;;;;;;;60.97;43.97;;;2.70;99.90;;;;;;5007667;28;20203;-80
2022/03/21 01:52:06;;;;;;;63.80;45.80;;;2.70;99.90;;;;;;5006561;28;20199;-78
2022/03/21 01:57:19;;;;;;;65.73;45.33;;;2.60;99.90;;;;;;5006560;28;20805;-78
2022/03/21 01:59:47;;;;;;;67.90;46.70;;;2.60;99.90;;;;;;5006201;28;20214;-78
2022/03/21 02:02:13;;;;;;;61.63;44.20;;;2.60;99.90;;;;;;5006255;28;20238;-78
2022/03/21 02:04:42;;;;;;;56.97;42.43;;;2.60;99.90;;;;;;5006800;28;21293;-79
2022/03/21 02:07:09;;;;;;;63.00;46.17;;;2.60;99.90;;;;;;5019883;28;20234;-79
2022/03/21 02:09:37;;;;;;;63.97;45.03;;;2.60;99.90;;;;;;5026337;28;20692;-79
2022/03/21 02:12:05;;;;;;;59.07;44.50;;;2.50;99.90;;;;;;5016475;28;20945;-78
2022/03/21 02:14:35;;;;;;;58.77;43.17;;;2.50;99.90;;;;;;5005858;28;20203;-78
2022/03/21 02:17:02;;;;;;;66.23;45.37;;;2.50;99.90;;;;;;5004938;28;20225;-78
2022/03/21 02:19:31;;;;;;;62.20;44.87;;;2.40;99.90;;;;;;5006341;28;20214;-80
2022/03/21 02:22:16;;;;;;;59.57;43.60;;;2.40;99.90;;;;;;5005117;28;20207;-79
2022/03/21 02:24:53;;;;;;;60.77;42.17;;;2.40;99.90;;;;;;5005750;28;20211;-79
2022/03/21 02:27:22;;;;;;;60.23;42.03;;;2.30;99.90;;;;;;5006602;28;20191;-78
2022/03/21 02:29:50;;;;;;;60.03;42.33;;;2.30;99.90;;;;;;5004757;28;20215;-78
2022/03/21 02:32:17;;;;;;;60.53;42.47;;;2.30;99.90;;;;;;5005881;28;20207;-79
2022/03/21 02:34:47;;;;;;;60.63;42.67;;;2.20;99.90;;;;;;5004516;28;20537;-79
2022/03/21 02:37:17;;;;;;;65.30;44.57;;;2.20;99.90;;;;;;5005440;28;20242;-79
2022/03/21 02:39:45;;;;;;;58.73;43.07;;;2.20;99.90;;;;;;5006527;28;20207;-80
2022/03/21 02:42:12;;;;;;;55.87;39.47;;;2.20;99.90;;;;;;5004960;28;20246;-79
2022/03/21 02:44:41;;;;;;;58.57;40.93;;;2.10;99.90;;;;;;5006238;28;20203;-79
2022/03/21 02:47:09;;;;;;;60.63;42.00;;;2.10;99.90;;;;;;5002161;28;20475;-78
2022/03/21 02:49:37;;;;;;;58.00;40.40;;;2.10;99.90;;;;;;4985442;28;20208;-78
2022/03/21 02:52:06;;;;;;;57.97;40.77;;;2.00;99.90;;;;;;5002278;28;20211;-77
2022/03/21 02:54:34;;;;;;;59.23;42.23;;;2.00;99.90;;;;;;5006356;28;20535;-78
2022/03/21 02:57:01;;;;;;;56.53;41.23;;;2.00;99.90;;;;;;5005857;28;20215;-80
2022/03/21 02:59:28;;;;;;;58.67;40.80;;;2.00;99.90;;;;;;5004452;28;20265;-80
2022/03/21 03:02:00;;;;;;;60.30;41.60;;;2.00;99.90;;;;;;5007144;28;20513;-81
2022/03/21 03:04:28;;;;;;;61.87;42.60;;;1.90;99.90;;;;;;5005574;28;20203;-80
2022/03/21 03:06:55;;;;;;;63.23;43.67;;;1.90;99.90;;;;;;4999042;28;20218;-79
2022/03/21 03:09:22;;;;;;;65.47;45.27;;;1.90;99.90;;;;;;5004424;28;20222;-79
2022/03/21 03:11:49;;;;;;;66.77;45.53;;;1.90;99.90;;;;;;5005318;28;20927;-79
2022/03/21 03:14:16;;;;;;;64.90;43.87;;;1.90;99.90;;;;;;5005938;28;20916;-79
2022/03/21 03:16:43;;;;;;;67.73;45.67;;;1.90;99.90;;;;;;5006478;28;20760;-80
2022/03/21 03:19:11;;;;;;;67.70;45.70;;;1.90;99.90;;;;;;5005882;28;20227;-81
2022/03/21 03:21:44;;;;;;;69.90;46.90;;;1.90;99.90;;;;;;5006818;28;20192;-80
2022/03/21 03:24:12;;;;;;;61.30;43.83;;;1.90;99.90;;;;;;5004612;28;20513;-80
2022/03/21 03:26:39;;;;;;;60.67;42.50;;;1.90;99.90;;;;;;5005565;28;20203;-80
2022/03/21 03:29:06;;;;;;;63.17;43.90;;;1.90;99.90;;;;;;5005897;28;20825;-78
2022/03/21 03:31:35;;;;;;;64.03;44.33;;;1.90;99.90;;;;;;5004239;28;20215;-78
2022/03/21 03:34:02;;;;;;;62.27;44.50;;;1.90;99.90;;;;;;5005634;28;21022;-78
2022/03/21 03:36:30;;;;;;;69.03;46.50;;;1.80;99.90;;;;;;5004890;28;20205;-78
2022/03/21 03:38:57;;;;;;;65.50;46.13;;;1.80;99.90;;;;;;5004161;28;20242;-80
2022/03/21 03:41:24;;;;;;;65.57;46.03;;;1.80;99.90;;;;;;5005296;28;20203;-79
2022/03/21 03:43:51;;;;;;;66.43;45.33;;;1.80;99.90;;;;;;5004459;28;20214;-78
2022/03/21 03:46:18;;;;;;;66.17;46.30;;;1.80;99.90;;;;;;5004093;28;20191;-78
2022/03/21 03:48:45;;;;;;;63.23;43.90;;;1.80;99.90;;;;;;4996414;28;20207;-77
2022/03/21 03:51:13;;;;;;;63.03;43.67;;;1.70;99.90;;;;;;4989859;28;20218;-78
2022/03/21 03:53:41;;;;;;;69.53;46.60;;;1.70;99.90;;;;;;4994764;28;20207;-78
2022/03/21 03:56:08;;;;;;;62.73;43.83;;;1.70;99.90;;;;;;5009135;28;20230;-78
2022/03/21 03:58:35;;;;;;;61.40;43.57;;;1.70;99.90;;;;;;5008344;28;20219;-79
2022/03/21 04:01:04;;;;;;;67.37;46.07;;;1.70;99.90;;;;;;5007361;28;20635;-79
2022/03/21 04:03:46;;;;;;;65.93;44.90;;;1.70;99.90;;;;;;5008416;28;20894;-78
2022/03/21 04:06:13;;;;;;;70.43;46.23;;;1.70;99.90;;;;;;5007431;28;20566;-79
2022/03/21 04:08:41;;;;;;;70.77;46.37;;;1.60;99.90;;;;;;5008660;28;20206;-78
2022/03/21 04:11:08;;;;;;;72.60;47.87;;;1.60;99.90;;;;;;5008251;28;20207;-79
2022/03/21 04:13:35;;;;;;;75.20;47.73;;;1.60;99.90;;;;;;5007583;28;20211;-80
2022/03/21 04:16:02;;;;;;;70.13;48.07;;;1.60;99.90;;;;;;5010129;28;20870;-79
2022/03/21 04:18:29;;;;;;;70.27;48.17;;;1.70;99.90;;;;;;5010632;28;20219;-80
2022/03/21 04:20:55;;;;;;;66.03;47.23;;;1.70;99.90;;;;;;5009933;28;20215;-80
2022/03/21 04:23:22;;;;;;;72.57;48.57;;;1.60;99.90;;;;;;5010210;28;20202;-77
2022/03/21 04:25:50;;;;;;;73.93;49.17;;;1.60;99.90;;;;;;5010393;28;20214;-81
2022/03/21 04:28:18;;;;;;;72.23;47.67;;;1.60;99.90;;;;;;4991470;28;20223;-80
2022/03/21 04:30:45;;;;;;;72.77;48.73;;;1.60;99.90;;;;;;4990444;28;20271;-80
2022/03/21 04:33:13;;;;;;;72.43;47.43;;;1.60;99.90;;;;;;4990272;28;20302;-79
2022/03/21 04:35:41;;;;;;;67.60;47.60;;;1.60;99.90;;;;;;5008795;28;20302;-80
2022/03/21 04:38:13;;;;;;;70.30;47.87;;;1.60;99.90;;;;;;5009286;28;20238;-79
2022/03/21 04:40:41;;;;;;;72.33;48.50;;;1.60;99.90;;;;;;5008973;28;20896;-79
2022/03/21 04:43:09;;;;;;;72.23;49.13;;;1.60;99.90;;;;;;5006813;28;20278;-79
2022/03/21 04:45:36;;;;;;;74.50;50.43;;;1.60;99.90;;;;;;5008325;28;20215;-79
2022/03/21 04:48:03;;;;;;;74.73;49.70;;;1.70;99.90;;;;;;5008442;28;20954;-79
2022/03/21 04:50:30;;;;;;;83.63;54.00;;;1.70;99.90;;;;;;5006356;28;20305;-80
2022/03/21 04:52:58;;;;;;;80.83;52.37;;;1.80;99.90;;;;;;5008557;28;20218;-81
2022/03/21 04:55:25;;;;;;;81.03;52.10;;;1.80;99.90;;;;;;5007370;28;20714;-80
2022/03/21 04:57:51;;;;;;;79.60;53.13;;;1.90;99.90;;;;;;5006354;28;20223;-78
2022/03/21 05:00:21;;;;;;;80.30;51.50;;;1.90;99.90;;;;;;5007720;28;20702;-78
2022/03/21 05:02:47;;;;;;;75.50;50.90;;;1.90;99.90;;;;;;5007639;28;20479;-78
2022/03/21 05:05:14;;;;;;;76.67;51.80;;;1.90;99.90;;;;;;5005886;28;20211;-78
2022/03/21 05:07:42;;;;;;;81.00;53.37;;;2.00;99.90;;;;;;5007901;28;20246;-78
2022/03/21 05:10:10;;;;;;;83.53;53.20;;;2.00;99.90;;;;;;5006983;28;20250;-79
2022/03/21 05:12:38;;;;;;;73.67;49.73;;;2.00;99.90;;;;;;5007115;28;20230;-80
2022/03/21 05:15:06;;;;;;;77.63;51.60;;;2.00;99.90;;;;;;5005985;28;20302;-80
2022/03/21 05:17:36;;;;;;;79.20;50.70;;;2.00;99.90;;;;;;5006598;28;20314;-79
2022/03/21 05:20:07;;;;;;;77.67;50.50;;;2.00;99.90;;;;;;5006013;28;20227;-79
2022/03/21 05:22:35;;;;;;;80.27;52.30;;;2.00;99.90;;;;;;5007036;28;20247;-80
2022/03/21 05:36:02;;;;;;;67.43;45.57;;;1.80;99.90;;;;;;4989816;28;20222;-79
2022/03/21 05:38:31;;;;;;;76.97;50.20;;;1.70;99.90;;;;;;5005673;28;20534;-79
2022/03/21 05:41:00;;;;;;;66.63;46.43;;;1.70;99.90;;;;;;5007273;28;20222;-80
2022/03/21 05:43:29;;;;;;;70.67;48.13;;;1.70;99.90;;;;;;5007081;28;20535;-79
2022/03/21 05:45:56;;;;;;;68.37;47.33;;;1.60;99.90;;;;;;5006718;28;20219;-80
2022/03/21 05:51:09;;;;;;;70.47;48.97;;;1.60;99.90;;;;;;4996009;28;20210;-79
2022/03/21 05:53:36;;;;;;;67.07;47.47;;;1.60;99.90;;;;;;5000361;28;20223;-79
2022/03/21 05:56:03;;;;;;;75.27;48.63;;;1.60;99.90;;;;;;4995545;28;20212;-79
2022/03/21 05:58:31;;;;;;;75.50;49.10;;;1.60;99.90;;;;;;4992587;28;20636;-79
2022/03/21 06:00:58;;;;;;;66.97;45.87;;;1.50;99.90;;;;;;4993176;28;20226;-79
2022/03/21 06:03:27;;;;;;;68.83;46.27;;;1.50;99.90;;;;;;4994984;28;20660;-79
2022/03/21 06:05:55;;;;;;;66.27;44.13;;;1.50;99.90;;;;;;5000637;28;20612;-79
2022/03/21 06:08:23;;;;;;;70.03;45.87;;;1.50;99.90;;;;;;4997263;28;20211;-79
2022/03/21 06:10:50;;;;;;;70.80;47.13;;;1.50;99.90;;;;;;4999391;28;20215;-80
2022/03/21 06:13:17;;;;;;;67.47;44.83;;;1.50;99.90;;;;;;5003769;28;20234;-79
2022/03/21 06:15:47;;;;;;;73.47;49.13;;;1.50;99.90;;;;;;5017898;23;20242;-78
2022/03/21 06:18:14;;;;;;;69.13;44.43;;;1.50;99.90;;;;;;5025356;28;20305;-79
2022/03/21 06:20:42;;;;;;;68.67;46.90;;;1.50;99.90;;;;;;5025162;28;20229;-80
2022/03/21 06:23:09;;;;;;;66.77;44.87;;;1.60;99.90;;;;;;5016570;28;20679;-80
2022/03/21 06:25:37;;;;;;;66.77;46.43;;;1.60;99.90;;;;;;5015345;28;20222;-80
2022/03/21 06:28:04;;;;;;;71.97;46.87;;;1.60;99.90;;;;;;5013210;28;20219;-80
2022/03/21 06:30:31;;;;;;;72.33;48.17;;;1.60;99.90;;;;;;5012063;28;20227;-79
2022/03/21 06:32:58;;;;;;;73.70;49.03;;;1.70;99.90;;;;;;5007488;28;20216;-80
2022/03/21 06:35:25;;;;;;;74.57;50.27;;;1.70;99.90;;;;;;5005671;28;20226;-79
2022/03/21 06:37:53;;;;;;;74.00;48.40;;;1.80;99.90;;;;;;5016340;28;20766;-79
2022/03/21 06:40:23;;;;;;;74.77;49.90;;;1.80;99.90;;;;;;5017068;28;20345;-77
2022/03/21 06:42:50;;;;;;;74.97;49.60;;;1.90;99.90;;;;;;5021199;28;20219;-79
2022/03/21 06:45:17;;;;;;;71.43;49.50;;;1.90;99.90;;;;;;5007839;28;20211;-79
2022/03/21 06:47:43;;;;;;;77.17;50.00;;;2.00;99.90;;;;;;5020534;28;20210;-79
2022/03/21 06:50:10;;;;;;;74.30;50.10;;;2.10;99.90;;;;;;5016233;28;20226;-78
2022/03/21 06:52:39;;;;;;;73.27;50.33;;;2.10;99.90;;;;;;5005629;28;20203;-79
2022/03/21 06:55:10;;;;;;;79.07;52.17;;;2.20;99.90;;;;;;5004865;28;20227;-79
2022/03/21 06:57:37;;;;;;;77.23;50.90;;;2.30;99.90;;;;;;5005423;28;20207;-77
2022/03/21 07:00:05;;;;;;;77.50;51.33;;;2.40;99.90;;;;;;5006945;28;20239;-78
2022/03/21 07:02:32;;;;;;;88.07;54.93;;;2.40;99.90;;;;;;5004413;28;20203;-79
2022/03/21 07:04:59;;;;;;;87.90;56.00;;;2.60;99.90;;;;;;5005383;28;20225;-79
2022/03/21 07:07:26;;;;;;;83.60;55.73;;;2.70;99.90;;;;;;5005032;28;20211;-79
2022/03/21 07:09:53;;;;;;;82.63;53.53;;;2.70;99.90;;;;;;5004795;28;20203;-81
2022/03/21 07:12:23;;;;;;;78.47;52.30;;;2.80;99.90;;;;;;5004847;28;20242;-79
2022/03/21 07:14:50;;;;;;;74.50;50.93;;;2.90;99.90;;;;;;5004384;28;20878;-79
2022/03/21 07:17:19;;;;;;;79.43;52.27;;;3.00;99.90;;;;;;5004109;28;20322;-79
2022/03/21 07:19:46;;;;;;;78.77;51.17;;;3.10;99.90;;;;;;5005075;28;20226;-79
2022/03/21 07:22:14;;;;;;;78.20;51.60;;;3.20;99.90;;;;;;5004022;28;20215;-79
2022/03/21 07:24:41;;;;;;;74.20;50.40;;;3.30;99.90;;;;;;5001719;28;20215;-80
2022/03/21 07:27:08;;;;;;;73.33;49.27;;;3.40;99.90;;;;;;5004922;28;20563;-80
2022/03/21 07:29:36;;;;;;;74.00;47.93;;;3.50;99.90;;;;;;5003061;28;20214;-79
2022/03/21 07:32:03;;;;;;;72.57;48.67;;;3.50;99.90;;;;;;5004231;28;20281;-79
2022/03/21 07:34:29;;;;;;;73.37;48.73;;;3.60;99.90;;;;;;5004381;28;20218;-79
2022/03/21 07:36:57;;;;;;;77.27;49.73;;;3.60;99.90;;;;;;5004717;28;20513;-78
2022/03/21 07:39:23;;;;;;;71.57;51.07;;;3.70;99.90;;;;;;4989978;28;20294;-83
2022/03/21 07:41:51;;;;;;;69.50;49.10;;;3.80;99.90;;;;;;4957237;28;20219;-79
2022/03/21 07:47:20;;;;;;;78.20;49.57;;;4.00;99.90;;;;;;5002683;28;20250;-79
2022/03/21 07:49:48;;;;;;;72.50;49.93;;;4.10;99.90;;;;;;5004977;28;20223;-80
2022/03/21 07:52:17;;;;;;;67.20;47.63;;;4.30;99.90;;;;;;5002855;28;20269;-79
2022/03/21 07:54:44;;;;;;;73.77;49.03;;;4.40;99.90;;;;;;5003544;28;20986;-79
2022/03/21 07:57:11;;;;;;;71.03;50.27;;;4.50;99.90;;;;;;5001659;28;20207;-79
2022/03/21 07:59:37;;;;;;;65.20;46.37;;;4.60;99.90;;;;;;5002553;28;20271;-79
2022/03/21 08:02:06;;;;;;;66.53;45.70;;;4.70;99.90;;;;;;5004215;28;20203;-81
2022/03/21 08:04:33;;;;;;;67.97;47.83;;;4.80;99.90;;;;;;5004658;28;20218;-80
2022/03/21 08:07:00;;;;;;;75.30;49.83;;;4.90;99.90;;;;;;5004346;28;20281;-80
2022/03/21 08:09:28;;;;;;;66.87;44.60;;;5.00;99.90;;;;;;5003462;28;20929;-80
2022/03/21 08:11:57;;;;;;;64.97;46.37;;;5.10;99.90;;;;;;5004762;28;20258;-81
2022/03/21 08:14:24;;;;;;;64.07;45.17;;;5.30;99.90;;;;;;5004271;28;20211;-79
2022/03/21 08:16:51;;;;;;;65.10;44.73;;;5.40;99.90;;;;;;4986782;28;20245;-79
2022/03/21 08:19:22;;;;;;;63.17;44.33;;;5.50;99.90;;;;;;4989956;28;20985;-79
2022/03/21 08:21:49;;;;;;;63.63;46.87;;;5.60;99.90;;;;;;5005092;28;20585;-81
2022/03/21 08:24:15;;;;;;;61.77;43.90;;;5.80;99.90;;;;;;5004626;28;20215;-79
2022/03/21 08:26:43;;;;;;;69.27;45.40;;;5.90;99.90;;;;;;5003812;28;20230;-80
2022/03/21 08:29:10;;;;;;;70.40;45.40;;;6.00;99.90;;;;;;5005332;28;20211;-81
2022/03/21 08:31:37;;;;;;;61.37;43.50;;;6.10;99.90;;;;;;5005801;28;20195;-81
2022/03/21 08:34:04;;;;;;;61.97;45.13;;;6.20;99.90;;;;;;5003242;28;20794;-81
2022/03/21 08:36:32;;;;;;;59.07;43.47;;;6.30;99.90;;;;;;5009786;28;20203;-82
2022/03/21 08:39:00;;;;;;;63.57;45.77;;;6.40;99.90;;;;;;5010969;28;20202;-82
2022/03/21 08:41:26;;;;;;;58.20;43.40;;;6.50;99.90;;;;;;4990869;28;20898;-81
2022/03/21 08:43:53;;;;;;;60.23;43.90;;;6.70;99.90;;;;;;4991167;28;20223;-82
2022/03/21 08:46:21;;;;;;;53.10;39.47;;;6.90;99.90;;;;;;4991891;28;20210;-81
2022/03/21 08:51:37;;;;;;;56.23;39.57;;;7.30;99.90;;;;;;5006350;28;20273;-82
2022/03/21 08:54:04;;;;;;;55.80;39.23;;;7.50;99.90;;;;;;5010919;28;20195;-82
2022/03/21 08:56:31;;;;;;;55.17;38.77;;;7.70;99.90;;;;;;5006534;28;20235;-82
2022/03/21 08:58:58;;;;;;;50.63;37.37;;;7.80;99.90;;;;;;5008434;28;20211;-82
2022/03/21 09:01:26;;;;;;;51.47;36.83;;;8.00;99.90;;;;;;5009356;28;20227;-81
2022/03/21 09:03:52;;;;;;;46.03;35.53;;;8.20;99.90;;;;;;5010379;28;20361;-81
2022/03/21 09:06:20;;;;;;;47.10;36.20;;;8.30;99.90;;;;;;5008839;28;20227;-82
2022/03/21 09:08:49;;;;;;;44.50;34.87;;;8.40;99.90;;;;;;5009063;28;20222;-81
2022/03/21 09:11:18;;;;;;;48.43;32.93;;;8.60;99.90;;;;;;5007940;28;20238;-82
2022/03/21 09:13:45;;;;;;;43.73;32.87;;;8.80;99.90;;;;;;5009686;28;20269;-81
2022/03/21 09:16:12;;;;;;;44.07;32.77;;;8.90;99.90;;;;;;5007656;28;20713;-83
2022/03/21 09:18:39;;;;;;;42.00;32.60;;;9.00;99.90;;;;;;5009311;28;20208;-81
2022/03/21 09:21:07;;;;;;;44.13;33.53;;;9.20;99.90;;;;;;5008333;28;20322;-79
2022/03/21 09:23:34;;;;;;;43.13;32.00;;;9.30;99.90;;;;;;5007929;28;20203;-81
2022/03/21 09:26:03;;;;;;;41.40;31.63;;;9.40;99.90;;;;;;5009026;28;20199;-80
2022/03/21 09:28:30;;;;;;;41.83;32.13;;;9.60;99.90;;;;;;5008614;28;20224;-81
2022/03/21 09:30:58;;;;;;;43.20;32.50;;;9.70;99.90;;;;;;5008307;28;20207;-81
2022/03/21 09:33:25;;;;;;;40.73;30.83;;;9.80;99.90;;;;;;5008731;28;20203;-81
2022/03/21 09:35:52;;;;;;;36.97;29.83;;;10.00;99.90;;;;;;5007404;28;20860;-80
2022/03/21 09:38:19;;;;;;;38.57;28.83;;;10.10;99.90;;;;;;4995863;28;20918;-81
2022/03/21 09:40:46;;;;;;;39.97;29.13;;;10.30;99.90;;;;;;4988106;28;20216;-81
2022/03/21 09:43:15;;;;;;;34.53;27.77;;;10.40;99.90;;;;;;4999632;28;20215;-81
2022/03/21 09:45:42;;;;;;;36.57;27.90;;;10.60;99.90;;;;;;5008995;28;20961;-81
2022/03/21 09:48:16;;;;;;;37.23;28.23;;;10.80;99.90;;;;;;5006642;28;20544;-81
2022/03/21 09:50:45;;;;;;;35.87;27.67;;;11.00;99.90;;;;;;5007819;28;20202;-81
2022/03/21 09:53:14;;;;;;;38.27;27.60;;;11.10;99.90;;;;;;5008183;28;20207;-82
2022/03/21 09:55:43;;;;;;;33.90;26.83;;;11.30;99.90;;;;;;5007962;28;20203;-81
2022/03/21 09:58:10;;;;;;;33.60;25.83;;;11.40;99.90;;;;;;5008101;28;20280;-81
2022/03/21 10:00:40;;;;;;;34.33;25.97;;;11.60;99.90;;;;;;5007018;28;20222;-81
2022/03/21 10:03:08;;;;;;;34.67;27.10;;;11.70;99.90;;;;;;5007754;28;20217;-81
2022/03/21 10:05:37;;;;;;;31.63;25.23;;;11.90;99.90;;;;;;5006985;28;20497;-82
2022/03/21 10:08:12;;;;;;;34.47;25.47;;;12.00;99.90;;;;;;5008027;28;20753;-80
2022/03/21 10:10:39;;;;;;;32.60;24.47;;;12.20;99.90;;;;;;5007606;28;20214;-82
2022/03/21 10:13:09;;;;;;;29.20;23.97;;;12.30;99.90;;;;;;5008827;28;20250;-81
2022/03/21 10:15:37;;;;;;;30.83;24.00;;;12.50;99.90;;;;;;5008808;28;20235;-80
2022/03/21 10:18:10;;;;;;;31.17;22.90;;;12.70;99.90;;;;;;5007258;28;20287;-79
2022/03/21 10:20:38;;;;;;;30.47;23.10;;;12.80;99.90;;;;;;4986759;28;20223;-79
2022/03/21 10:23:22;;;;;;;29.17;23.03;;;12.90;99.90;;;;;;4986738;28;20211;-79
2022/03/21 10:25:48;;;;;;;26.97;22.07;;;13.00;99.90;;;;;;4986505;28;20202;-80
2022/03/21 10:28:36;;;;;;;29.50;22.77;;;13.20;99.90;;;;;;4989098;28;20227;-80
2022/03/21 10:31:04;;;;;;;31.37;24.03;;;13.30;99.90;;;;;;5006795;28;20668;-80
2022/03/21 10:33:32;;;;;;;29.93;20.70;;;13.30;99.90;;;;;;5006512;28;20203;-80
2022/03/21 10:36:05;;;;;;;27.67;21.93;;;13.20;99.90;;;;;;5006951;28;20206;-79
2022/03/21 10:38:34;;;;;;;26.90;21.37;;;13.30;99.90;;;;;;5005925;28;20293;-82
2022/03/21 10:41:08;;;;;;;26.53;20.57;;;13.50;99.90;;;;;;5006919;28;20227;-80
2022/03/21 10:43:36;;;;;;;29.47;21.90;;;13.80;99.90;;;;;;5006254;28;20202;-80
2022/03/21 10:46:04;;;;;;;28.97;21.70;;;13.90;99.90;;;;;;5006886;28;20207;-81
2022/03/21 10:48:35;;;;;;;27.93;20.97;;;14.00;99.90;;;;;;5006170;28;20429;-81
2022/03/21 10:51:04;;;;;;;25.57;20.47;;;14.20;99.90;;;;;;5005815;28;20513;-79
2022/03/21 10:53:38;;;;;;;25.97;19.80;;;14.20;99.90;;;;;;5006119;28;20203;-82
2022/03/21 10:56:09;;;;;;;26.17;20.50;;;14.30;99.90;;;;;;5006300;28;20203;-81
2022/03/21 10:58:37;;;;;;;21.23;16.57;;;14.40;99.90;;;;;;5004615;28;20207;-80
2022/03/21 11:01:12;;;;;;;23.90;17.20;;;14.40;99.90;;;;;;5006285;28;20234;-82
2022/03/21 11:03:41;;;;;;;25.67;19.03;;;14.40;99.90;;;;;;5004789;28;20341;-81
2022/03/21 11:06:09;;;;;;;24.57;18.53;;;14.50;99.90;;;;;;4986541;28;20258;-80
2022/03/21 11:08:36;;;;;;;22.80;17.60;;;14.60;99.90;;;;;;4995335;28;20207;-80
2022/03/21 11:11:03;;;;;;;21.40;16.40;;;14.70;99.90;;;;;;5004494;28;20318;-80
2022/03/21 11:13:32;;;;;;;22.17;16.70;;;14.70;99.90;;;;;;5004333;28;20202;-79
2022/03/21 11:16:00;;;;;;;19.27;15.23;;;14.90;99.90;;;;;;5005694;28;20239;-79
2022/03/21 11:18:27;;;;;;;19.23;15.63;;;14.90;99.90;;;;;;5004765;28;20807;-80
2022/03/21 11:20:57;;;;;;;22.23;16.17;;;15.10;99.90;;;;;;5005098;28;20457;-79
2022/03/21 11:23:25;;;;;;;19.53;15.70;;;15.20;99.90;;;;;;5003848;28;20532;-79
2022/03/21 11:25:57;;;;;;;18.00;14.70;;;15.30;99.90;;;;;;5005126;28;20921;-78
2022/03/21 11:28:55;;;;;;;19.40;15.20;;;15.30;99.90;;;;;;5005781;28;20297;-79
2022/03/21 11:31:52;;;;;;;18.60;14.60;;;15.10;99.90;;;;;;5003591;28;20202;-79
2022/03/21 11:34:34;;;;;;;22.27;15.03;;;15.20;99.90;;;;;;5003407;28;20214;-80
2022/03/21 11:37:02;;;;;;;18.90;15.17;;;15.40;99.90;;;;;;5004509;28;20203;-79
2022/03/21 11:39:30;;;;;;;21.63;14.30;;;15.50;99.90;;;;;;5003432;28;20211;-80
2022/03/21 11:42:02;;;;;;;17.70;14.90;;;15.50;99.90;;;;;;5005447;28;20574;-80
2022/03/21 11:44:30;;;;;;;17.20;14.50;;;15.70;99.90;;;;;;5004735;28;20599;-81
2022/03/21 11:47:22;;;;;;;14.97;12.73;;;15.90;99.90;;;;;;5004471;28;20218;-79
2022/03/21 11:49:49;;;;;;;18.52;13.70;;;16.00;99.90;;;;;;5005257;28;20310;-77
2022/03/21 11:52:18;;;;;;;16.17;13.60;;;16.10;99.90;;;;;;5004617;28;20210;-79
2022/03/21 11:54:45;;;;;;;17.77;12.53;;;15.90;99.90;;;;;;5002029;28;20616;-78
2022/03/21 11:57:25;;;;;;;15.13;12.07;;;16.00;99.90;;;;;;5003927;28;20210;-79
2022/03/21 11:59:58;;;;;;;17.33;13.38;;;16.00;99.90;;;;;;5004180;28;20192;-79
2022/03/21 12:02:57;;;;;;;15.90;12.27;;;16.10;99.90;;;;;;5003984;28;20685;-78
2022/03/21 12:05:50;;;;;;;16.17;13.47;;;16.30;99.90;;;;;;5002882;28;20200;-79
2022/03/21 12:08:52;;;;;;;15.52;12.90;;;16.40;99.90;;;;;;5003775;28;20468;-79
2022/03/21 12:11:56;;;;;;;16.70;13.53;;;16.40;99.90;;;;;;5005522;28;20230;-79
2022/03/21 12:14:28;;;;;;;16.27;13.15;;;16.40;99.90;;;;;;4988947;28;20213;-78
2022/03/21 12:17:27;;;;;;;17.75;13.93;;;16.60;99.90;;;;;;5004358;28;20329;-78
2022/03/21 12:20:21;;;;;;;15.63;12.98;;;16.70;99.90;;;;;;5007254;28;20273;-80
2022/03/21 12:22:52;;;;;;;15.85;13.45;;;17.00;99.90;;;;;;4949617;28;20218;-83
2022/03/21 12:25:22;;;;;;;17.17;13.18;;;16.90;99.90;;;;;;5007415;28;20191;-86
2022/03/21 12:27:52;;;;;;;17.85;14.10;;;17.00;99.90;;;;;;5007882;28;20215;-78
2022/03/21 12:30:38;;;;;;;20.38;13.55;;;17.10;99.90;;;;;;5006606;28;20207;-80
2022/03/21 12:33:31;;;;;;;18.38;13.43;;;17.20;99.90;;;;;;5006992;28;20233;-78
2022/03/21 12:36:07;;;;;;;17.00;12.82;;;17.30;99.90;;;;;;4997172;28;20910;-79
2022/03/21 12:38:37;;;;;;;16.98;12.73;;;17.20;99.90;;;;;;4987553;28;20204;-79
2022/03/21 12:41:10;;;;;;;18.25;14.20;;;17.40;99.90;;;;;;4987193;28;20259;-78
2022/03/21 12:43:49;;;;;;;16.23;12.80;;;17.40;99.90;;;;;;4986831;28;20215;-77
2022/03/21 12:46:18;;;;;;;17.00;12.80;;;17.50;99.90;;;;;;4985621;28;20218;-77
2022/03/21 12:48:49;;;;;;;16.30;13.30;;;17.60;99.90;;;;;;5003139;28;20211;-78
2022/03/21 12:51:25;;;;;;;18.85;14.48;;;17.50;99.90;;;;;;4988425;28;20200;-82
2022/03/21 12:53:51;;;;;;;15.65;13.23;;;17.30;99.90;;;;;;4987715;28;20489;-79
2022/03/21 12:56:20;;;;;;;17.05;12.68;;;17.00;99.90;;;;;;4988425;28;20204;-78
2022/03/21 12:58:49;;;;;;;18.25;14.13;;;17.10;99.90;;;;;;5001009;28;20208;-78
2022/03/21 13:01:18;;;;;;;20.58;14.68;;;17.20;99.90;;;;;;5006543;28;20230;-79
2022/03/21 13:03:45;;;;;;;21.92;15.50;;;17.20;99.90;;;;;;5007671;28;20523;-78
2022/03/21 13:11:48;;;;;;;13.95;12.55;;;17.20;99.90;;;;;;5007071;28;20214;-79